createdAt,value
2023-01-19T00:02:21.558Z,8.57
2023-01-19T00:06:07.765Z,14.20
2023-01-19T00:09:49.547Z,10.20
2023-01-19T00:13:31.357Z,10.95
2023-01-19T00:17:13.109Z,9.98
2023-01-19T00:20:54.795Z,10.40
2023-01-19T00:24:36.582Z,9.63
2023-01-19T00:28:19.383Z,7.47
2023-01-19T00:32:02.713Z,12.50
2023-01-19T00:35:44.458Z,9.30
2023-01-19T00:39:26.189Z,9.90
2023-01-19T00:43:07.972Z,7.45
2023-01-19T00:46:49.719Z,7.97
2023-01-19T00:50:32.742Z,11.48
2023-01-19T00:54:14.675Z,9.43
2023-01-19T00:57:57.152Z,9.68
2023-01-19T01:01:45.132Z,7.18
2023-01-19T01:05:27.663Z,9.85
2023-01-19T01:09:11.976Z,12.15
2023-01-19T01:12:57.423Z,14.02
2023-01-19T01:16:40.478Z,14.35
2023-01-19T01:20:27.946Z,12.60
2023-01-19T01:24:10.556Z,24.33
2023-01-19T01:27:53.154Z,18.52
2023-01-19T01:31:35.196Z,15.00
2023-01-19T01:35:17.251Z,12.80
2023-01-19T01:39:00.124Z,7.30
2023-01-19T01:42:42.595Z,9.18
2023-01-19T01:46:25.831Z,9.63
2023-01-19T01:50:12.774Z,10.48
2023-01-19T01:54:16.759Z,6.80
2023-01-19T01:58:02.807Z,8.82
2023-01-19T02:02:03.128Z,8.00
2023-01-19T02:05:46.394Z,5.88
2023-01-19T02:09:51.356Z,6.97
2023-01-19T02:13:39.942Z,8.38
2023-01-19T02:17:22.153Z,10.13
2023-01-19T02:21:23.950Z,8.68
2023-01-19T02:25:06.803Z,7.93
2023-01-19T02:29:00.470Z,8.23
2023-01-19T02:36:29.008Z,10.23
2023-01-19T02:40:14.039Z,9.10
2023-01-19T02:43:58.580Z,7.15
2023-01-19T02:47:44.386Z,9.60
2023-01-19T02:51:27.631Z,9.15
2023-01-19T02:55:22.253Z,7.57
2023-01-19T02:59:23.276Z,9.45
2023-01-19T03:03:31.087Z,8.27
2023-01-19T03:07:51.921Z,9.20
2023-01-19T03:11:38.324Z,10.55
2023-01-19T03:15:29.505Z,11.20
2023-01-19T03:19:27.295Z,11.82
2023-01-19T03:23:12.717Z,8.38
2023-01-19T03:27:03.839Z,10.30
2023-01-19T03:30:52.220Z,10.15
2023-01-19T03:34:41.048Z,8.45
2023-01-19T03:38:26.199Z,12.80
2023-01-19T03:42:14.468Z,10.57
2023-01-19T03:45:57.458Z,10.80
2023-01-19T03:49:41.063Z,11.80
2023-01-19T03:53:22.924Z,11.60
2023-01-19T03:57:04.822Z,11.80
2023-01-19T04:00:46.530Z,15.30
2023-01-19T04:04:28.433Z,14.63
2023-01-19T04:08:11.102Z,12.45
2023-01-19T04:11:52.996Z,23.98
2023-01-19T04:15:34.763Z,13.98
2023-01-19T04:19:16.471Z,10.85
2023-01-19T04:23:02.447Z,12.25
2023-01-19T04:26:44.420Z,10.85
2023-01-19T04:30:27.477Z,12.82
2023-01-19T04:34:09.228Z,15.02
2023-01-19T04:37:51.252Z,9.23
2023-01-19T04:41:33.075Z,9.05
2023-01-19T04:45:15.237Z,11.65
2023-01-19T04:48:56.974Z,9.70
2023-01-19T04:52:38.763Z,11.73
2023-01-19T04:56:20.459Z,10.45
2023-01-19T05:00:02.939Z,10.05
2023-01-19T05:03:44.715Z,11.43
2023-01-19T05:07:26.786Z,11.27
2023-01-19T05:11:08.539Z,10.75
2023-01-19T05:14:50.387Z,11.75
2023-01-19T05:18:36.013Z,10.80
2023-01-19T05:22:17.838Z,10.13
2023-01-19T05:26:01.939Z,12.13
2023-01-19T05:29:43.953Z,12.50
2023-01-19T05:33:26.270Z,11.85
2023-01-19T05:37:08.038Z,12.13
2023-01-19T05:40:49.764Z,10.05
2023-01-19T05:44:31.515Z,11.55
2023-01-19T05:48:13.277Z,12.55
2023-01-19T05:51:55.052Z,11.45
2023-01-19T05:55:36.781Z,12.93
2023-01-19T05:59:24.040Z,12.73
2023-01-19T06:03:06.575Z,19.92
2023-01-19T06:06:51.592Z,15.60
2023-01-19T06:10:33.473Z,11.88
2023-01-19T06:14:15.475Z,15.95
2023-01-19T06:17:57.215Z,13.43
2023-01-19T06:21:38.962Z,12.93
2023-01-19T06:25:20.670Z,15.55
2023-01-19T06:29:02.410Z,15.20
2023-01-19T06:32:44.281Z,16.80
2023-01-19T06:36:26.313Z,14.23
2023-01-19T06:40:08.753Z,16.20
2023-01-19T06:43:50.539Z,17.67
2023-01-19T06:47:34.365Z,17.05
2023-01-19T06:51:16.121Z,17.52
2023-01-19T06:54:58.546Z,11.95
2023-01-19T06:58:42.119Z,13.27
2023-01-19T07:02:26.294Z,12.13
2023-01-19T07:06:08.931Z,12.57
2023-01-19T07:09:51.525Z,11.93
2023-01-19T07:13:37.823Z,12.82
2023-01-19T07:17:20.092Z,12.60
2023-01-19T07:21:01.849Z,15.15
2023-01-19T07:24:43.633Z,13.95
2023-01-19T07:28:25.592Z,13.82
2023-01-19T07:32:07.543Z,11.00
2023-01-19T07:35:50.001Z,14.38
2023-01-19T07:39:32.035Z,13.77
2023-01-19T07:43:14.728Z,17.65
2023-01-19T07:46:56.707Z,18.40
2023-01-19T07:50:38.496Z,16.10
2023-01-19T07:54:21.693Z,17.85
2023-01-19T07:58:07.444Z,14.25
2023-01-19T08:01:49.372Z,18.02
2023-01-19T08:05:32.789Z,14.52
2023-01-19T08:09:14.552Z,17.67
2023-01-19T08:12:57.728Z,16.20
2023-01-19T08:16:39.582Z,13.95
2023-01-19T08:20:23.245Z,16.67
2023-01-19T08:24:05.349Z,12.15
2023-01-19T08:27:47.125Z,14.02
2023-01-19T08:31:29.070Z,16.42
2023-01-19T08:35:10.953Z,16.90
2023-01-19T08:38:53.175Z,18.52
2023-01-19T08:42:34.896Z,18.60
2023-01-19T08:46:17.471Z,23.02
2023-01-19T08:49:59.397Z,24.48
2023-01-19T08:53:42.839Z,19.98
2023-01-19T09:01:07.998Z,25.42
2023-01-19T09:08:31.738Z,25.58
2023-01-19T09:12:13.536Z,30.17
2023-01-19T09:15:55.417Z,32.50
2023-01-19T09:19:37.196Z,28.88
2023-01-19T09:23:20.502Z,35.50
2023-01-19T09:27:02.426Z,17.83
2023-01-19T09:30:45.045Z,15.25
2023-01-19T09:34:26.861Z,17.73
2023-01-19T09:38:10.227Z,45.03
2023-01-19T09:42:05.933Z,44.50
2023-01-19T09:46:10.754Z,17.13
2023-01-19T09:50:23.361Z,14.98
2023-01-19T09:54:13.506Z,16.15
2023-01-19T09:57:55.405Z,16.15
2023-01-19T10:02:14.924Z,14.05
2023-01-19T10:06:03.711Z,13.07
2023-01-19T10:10:21.487Z,18.13
2023-01-19T10:14:11.261Z,21.65
2023-01-19T10:17:53.041Z,16.63
2023-01-19T10:21:41.046Z,16.83
2023-01-19T10:25:24.415Z,13.43
2023-01-19T10:29:13.369Z,14.40
2023-01-19T10:32:55.371Z,13.52
2023-01-19T10:36:39.811Z,11.68
2023-01-19T10:40:34.852Z,12.68
2023-01-19T10:44:34.966Z,11.57
2023-01-19T10:48:16.883Z,10.00
2023-01-19T10:52:00.001Z,13.10
2023-01-19T10:55:41.769Z,12.07
2023-01-19T10:59:50.651Z,11.90
2023-01-19T11:03:34.149Z,10.30
2023-01-19T11:07:34.546Z,11.90
2023-01-19T11:11:16.435Z,13.57
2023-01-19T11:14:58.367Z,13.98
2023-01-19T11:18:41.348Z,15.18
2023-01-19T11:22:28.206Z,10.85
2023-01-19T11:26:50.041Z,14.43
2023-01-19T11:30:32.215Z,12.57
2023-01-19T11:34:34.479Z,15.48
2023-01-19T11:38:19.621Z,13.80
2023-01-19T11:42:03.849Z,14.45
2023-01-19T11:45:46.256Z,20.73
2023-01-19T11:49:55.643Z,16.55
2023-01-19T11:53:37.859Z,12.63
2023-01-19T11:57:20.140Z,18.05
2023-01-19T12:01:04.733Z,19.75
2023-01-19T12:04:48.097Z,12.63
2023-01-19T12:09:11.339Z,13.45
2023-01-19T12:12:53.811Z,13.97
2023-01-19T12:16:37.878Z,11.47
2023-01-19T12:20:34.171Z,10.38
2023-01-19T12:24:36.483Z,10.60
2023-01-19T12:28:22.610Z,10.25
2023-01-19T12:32:18.383Z,11.10
2023-01-19T12:36:09.993Z,14.52
2023-01-19T12:39:51.758Z,7.93
2023-01-19T12:43:33.465Z,9.52
2023-01-19T12:47:15.189Z,7.97
2023-01-19T12:50:56.919Z,8.98
2023-01-19T12:54:43.602Z,12.60
2023-01-19T12:58:26.073Z,9.98
2023-01-19T13:02:40.342Z,8.93
2023-01-19T13:06:48.246Z,8.90
2023-01-19T13:11:10.151Z,9.63
2023-01-19T13:15:38.203Z,9.52
2023-01-19T13:19:36.979Z,11.38
2023-01-19T13:23:46.387Z,10.27
2023-01-19T13:27:28.578Z,9.60
2023-01-19T13:31:11.884Z,6.80
2023-01-19T13:34:59.325Z,10.20
2023-01-19T13:38:42.735Z,12.65
2023-01-19T13:42:41.698Z,8.45
2023-01-19T13:46:26.293Z,11.60
2023-01-19T13:50:31.188Z,8.30
2023-01-19T13:54:17.727Z,9.10
2023-01-19T13:57:59.527Z,6.43
2023-01-19T14:01:44.410Z,6.63
2023-01-19T14:05:58.657Z,7.63
2023-01-19T14:09:56.776Z,6.43
2023-01-19T14:13:44.793Z,6.82
2023-01-19T14:17:32.275Z,6.47
2023-01-19T14:21:15.830Z,7.85
2023-01-19T14:29:06.858Z,6.15
2023-01-19T14:32:50.319Z,4.93
2023-01-19T14:40:27.323Z,5.95
2023-01-19T14:44:19.859Z,4.80
2023-01-19T14:48:06.136Z,6.10
2023-01-19T14:51:48.944Z,5.13
2023-01-19T14:55:44.556Z,7.97
2023-01-19T14:59:26.345Z,5.20
2023-01-19T15:03:09.965Z,8.10
2023-01-19T15:06:51.978Z,5.47
2023-01-19T15:10:35.826Z,8.45
2023-01-19T15:14:20.356Z,6.35
2023-01-19T15:18:04.376Z,7.32
2023-01-19T15:21:46.894Z,6.15
2023-01-19T15:25:30.406Z,7.33
2023-01-19T15:29:26.398Z,5.65
2023-01-19T15:33:21.353Z,11.07
2023-01-19T15:37:03.153Z,10.00
2023-01-19T15:40:47.994Z,6.68
2023-01-19T15:44:32.825Z,8.88
2023-01-19T15:48:14.881Z,6.38
2023-01-19T15:51:56.742Z,6.78
2023-01-19T15:55:38.481Z,6.85
2023-01-19T15:59:20.179Z,12.30
2023-01-19T16:03:03.443Z,7.50
2023-01-19T16:06:45.277Z,6.88
2023-01-19T16:10:27.027Z,9.48
2023-01-19T16:14:08.762Z,10.70
2023-01-19T16:17:50.607Z,12.65
2023-01-19T16:21:34.890Z,23.98
2023-01-19T16:25:16.645Z,16.38
2023-01-19T16:29:00.795Z,16.23
2023-01-19T16:32:42.728Z,16.27
2023-01-19T16:36:29.955Z,13.93
2023-01-19T16:40:12.338Z,14.38
2023-01-19T16:43:55.577Z,18.50
2023-01-19T16:47:37.283Z,21.55
2023-01-19T16:51:19.821Z,22.88
2023-01-19T16:55:01.547Z,24.47
2023-01-19T16:58:45.843Z,25.42
2023-01-19T17:02:27.569Z,28.17
2023-01-19T17:09:58.544Z,23.58
2023-01-19T17:13:40.338Z,21.65
2023-01-19T17:17:22.044Z,20.45
2023-01-19T17:21:06.097Z,20.70
2023-01-19T17:24:47.890Z,17.65
2023-01-19T17:28:29.979Z,22.15
2023-01-19T17:32:11.741Z,20.83
2023-01-19T17:35:53.425Z,16.65
2023-01-19T17:39:35.143Z,12.82
2023-01-19T17:43:16.840Z,15.98
2023-01-19T17:47:00.035Z,17.15
2023-01-19T17:50:42.016Z,18.70
2023-01-19T17:54:23.954Z,22.38
2023-01-19T17:58:05.658Z,17.85
2023-01-19T18:01:47.824Z,28.10
2023-01-19T18:05:29.622Z,22.20
2023-01-19T18:09:12.210Z,18.67
2023-01-19T18:12:54.238Z,19.13
2023-01-19T18:16:36.135Z,17.92
2023-01-19T18:20:17.937Z,21.27
2023-01-19T18:24:02.352Z,19.23
2023-01-19T18:27:44.106Z,22.65
2023-01-19T18:31:26.849Z,22.88
2023-01-19T18:35:08.950Z,35.83
2023-01-19T18:38:50.752Z,26.92
2023-01-19T18:42:34.018Z,27.05
2023-01-19T18:46:16.350Z,24.70
2023-01-19T18:49:58.199Z,31.58
2023-01-19T18:53:40.500Z,42.13
2023-01-19T18:57:22.217Z,24.13
2023-01-19T19:01:25.508Z,18.73
2023-01-19T19:05:07.740Z,21.25
2023-01-19T19:08:54.007Z,22.25
2023-01-19T19:12:35.756Z,23.10
2023-01-19T19:16:18.000Z,17.00
2023-01-19T19:19:59.726Z,15.75
2023-01-19T19:23:41.442Z,24.88
2023-01-19T19:27:23.149Z,24.08
2023-01-19T19:31:11.585Z,34.17
2023-01-19T19:34:53.448Z,19.33
2023-01-19T19:38:36.819Z,26.38
2023-01-19T19:42:18.582Z,20.40
2023-01-19T19:46:05.419Z,13.43
2023-01-19T19:49:47.265Z,14.20
2023-01-19T19:53:28.983Z,17.42
2023-01-19T19:57:10.710Z,20.98
2023-01-19T20:00:52.565Z,21.05
2023-01-19T20:04:34.395Z,21.45
2023-01-19T20:08:16.145Z,17.08
2023-01-19T20:11:57.860Z,24.00
2023-01-19T20:15:39.639Z,30.45
2023-01-19T20:19:21.416Z,36.17
2023-01-19T20:23:03.256Z,34.83
2023-01-19T20:26:51.550Z,27.20
2023-01-19T20:30:33.272Z,17.48
2023-01-19T20:34:17.968Z,19.67
2023-01-19T20:37:59.983Z,23.33
2023-01-19T20:41:45.607Z,17.92
2023-01-19T20:45:27.499Z,17.80
2023-01-19T20:49:09.361Z,18.58
2023-01-19T20:52:51.080Z,20.95
2023-01-19T20:56:32.831Z,21.35
2023-01-19T21:00:14.887Z,33.35
2023-01-19T21:03:56.616Z,26.83
2023-01-19T21:07:38.427Z,35.53
2023-01-19T21:11:21.342Z,21.63
2023-01-19T21:15:03.254Z,22.52
2023-01-19T21:18:44.946Z,20.30
2023-01-19T21:22:26.643Z,20.63
2023-01-19T21:26:08.399Z,23.10
2023-01-19T21:29:50.172Z,26.85
2023-01-19T21:33:32.124Z,28.05
2023-01-19T21:37:13.833Z,19.85
2023-01-19T21:40:56.935Z,22.83
2023-01-19T21:44:38.773Z,20.83
2023-01-19T21:48:20.612Z,18.40
2023-01-19T21:52:02.339Z,20.80
2023-01-19T21:55:45.582Z,15.75
2023-01-19T21:59:27.588Z,16.08
2023-01-19T22:03:09.436Z,17.95
2023-01-19T22:06:51.237Z,15.68
2023-01-19T22:10:37.303Z,16.38
2023-01-19T22:14:19.155Z,15.88
2023-01-19T22:18:00.910Z,14.98
2023-01-19T22:21:42.644Z,14.38
2023-01-19T22:25:27.747Z,11.18
2023-01-19T22:29:11.307Z,11.90
2023-01-19T22:36:34.924Z,14.00
2023-01-19T22:40:17.124Z,19.65
2023-01-19T22:44:01.228Z,15.20
2023-01-19T22:47:43.058Z,15.50
2023-01-19T22:51:25.817Z,17.33
2023-01-19T22:55:07.919Z,14.18
2023-01-19T22:58:50.301Z,17.33
2023-01-19T23:02:32.126Z,14.00
2023-01-19T23:06:23.024Z,13.52
2023-01-19T23:10:05.156Z,12.35
2023-01-19T23:13:47.437Z,13.55
2023-01-19T23:17:29.136Z,12.32
2023-01-19T23:21:16.576Z,12.65
2023-01-19T23:24:58.280Z,10.95
2023-01-19T23:28:40.661Z,17.92
2023-01-19T23:32:22.535Z,14.27
2023-01-19T23:36:04.469Z,15.02
2023-01-19T23:39:46.258Z,12.27
2023-01-19T23:43:27.955Z,11.98
2023-01-19T23:47:09.773Z,12.68
2023-01-19T23:50:51.491Z,19.15
2023-01-19T23:54:33.291Z,17.92
2023-01-19T23:58:14.988Z,16.50
